Time;durP1;ratioP1;P1;durP2;ratioP2;P2;SDS_P1;SDS_P2;PMS_P1;PMS_P2;Temp;Humidity;BMP_temperature;BMP_pressure;BME280_temperature;BME280_humidity;BME280_pressure;Samples;Min_cycle;Max_cycle;Signal;HPM_P1;HPM_P2
2021/07/26 00:01:39;;;;;;;5.44;1.35;;;;;;;15.71;92.01;98772.13;1998675;81;20592;-82
2021/07/26 00:04:42;;;;;;;5.61;1.10;;;;;;;15.70;92.01;98771.28;1999550;81;20217;-82
2021/07/26 00:07:45;;;;;;;2.89;1.27;;;;;;;15.68;91.96;98769.63;1996501;81;20215;-81
2021/07/26 00:14:16;;;;;;;1.31;1.18;;;;;;;15.65;91.99;98773.22;2006282;71;20287;-81
2021/07/26 00:17:19;;;;;;;2.55;1.10;;;;;;;15.59;91.80;98768.19;1998425;77;207276;-82
2021/07/26 00:20:22;;;;;;;4.56;1.16;;;;;;;15.53;91.75;98759.66;2003348;81;20187;-79
2021/07/26 00:23:25;;;;;;;1.31;1.14;;;;;;;15.50;91.72;98762.38;2004887;81;20272;-81
2021/07/26 00:26:28;;;;;;;4.18;1.36;;;;;;;15.51;91.87;98761.47;2001158;81;20183;-81
2021/07/26 00:29:31;;;;;;;6.47;1.86;;;;;;;15.46;91.72;98756.41;2000377;81;20171;-81
2021/07/26 00:32:34;;;;;;;1.86;1.00;;;;;;;15.40;91.65;98749.59;2000369;77;173088;-82
2021/07/26 00:35:37;;;;;;;4.72;1.24;;;;;;;15.36;91.93;98757.63;2005248;81;20242;-82
2021/07/26 00:38:40;;;;;;;2.35;1.04;;;;;;;15.37;92.15;98761.94;2002551;81;20179;-81
2021/07/26 00:41:44;;;;;;;1.74;1.29;;;;;;;15.35;92.32;98762.00;2004630;80;20193;-82
2021/07/26 00:44:46;;;;;;;4.09;1.11;;;;;;;15.36;92.37;98768.94;2002007;81;20191;-82
2021/07/26 00:47:49;;;;;;;3.53;1.30;;;;;;;15.31;92.27;98762.16;1999038;77;179049;-81
2021/07/26 00:50:53;;;;;;;3.19;1.17;;;;;;;15.28;92.29;98755.28;2001426;81;20159;-82
2021/07/26 00:53:56;;;;;;;3.88;1.20;;;;;;;15.28;92.45;98770.97;2001577;81;20352;-82
2021/07/26 00:57:02;;;;;;;2.84;0.90;;;;;;;15.27;92.61;98763.19;2003393;81;20195;-81
2021/07/26 01:00:06;;;;;;;2.34;1.10;;;;;;;15.26;92.82;98764.06;2002485;81;20209;-81
2021/07/26 01:03:09;;;;;;;6.96;1.26;;;;;;;15.26;93.05;98761.44;2001660;78;95070;-83
2021/07/26 01:06:12;;;;;;;3.56;1.05;;;;;;;15.30;93.13;98763.06;2002858;81;20171;-82
2021/07/26 01:09:16;;;;;;;1.81;0.98;;;;;;;15.31;92.89;98759.53;2004546;80;20255;-81
2021/07/26 01:12:18;;;;;;;5.38;1.16;;;;;;;15.28;92.77;98755.28;2003367;81;20191;-81
2021/07/26 01:15:22;;;;;;;2.74;1.02;;;;;;;15.26;92.62;98759.72;2004944;81;20253;-82
2021/07/26 01:18:28;;;;;;;2.50;0.96;;;;;;;15.24;92.63;98764.09;2000235;77;111843;-81
2021/07/26 01:21:34;;;;;;;2.09;1.00;;;;;;;15.23;92.57;98769.38;2004827;81;20291;-81
2021/07/26 01:24:37;;;;;;;3.28;1.00;;;;;;;15.20;92.34;98761.66;2001749;81;20179;-82
2021/07/26 01:27:40;;;;;;;8.51;1.00;;;;;;;15.18;92.46;98766.94;2003670;81;20208;-79
2021/07/26 01:30:44;;;;;;;2.80;0.63;;;;;;;15.15;92.65;98772.28;2002133;81;20171;-81
2021/07/26 01:33:48;;;;;;;4.88;0.60;;;;;;;15.06;92.78;98770.78;1997015;78;232887;-81
2021/07/26 01:36:51;;;;;;;2.24;0.60;;;;;;;15.03;92.84;98775.28;2000833;80;20199;-81
2021/07/26 01:39:54;;;;;;;0.71;0.70;;;;;;;15.04;92.99;98779.59;2002407;81;20197;-81
2021/07/26 01:43:01;;;;;;;3.97;0.70;;;;;;;15.04;92.99;98780.44;2002401;81;20244;-81
2021/07/26 01:50:01;;;;;;;2.83;1.23;;;;;;;15.05;92.72;98781.31;2002997;71;20235;-79
2021/07/26 01:53:04;;;;;;;3.16;0.99;;;;;;;15.02;92.69;98781.41;2001756;81;20227;-81
2021/07/26 01:56:07;;;;;;;2.15;0.64;;;;;;;15.02;92.58;98797.09;2005609;81;20172;-81
2021/07/26 01:59:10;;;;;;;3.72;1.14;;;;;;;15.00;92.42;98794.53;2001958;80;20220;-81
2021/07/26 02:02:13;;;;;;;2.42;0.99;;;;;;;14.98;92.35;98791.13;2004373;78;162320;-80
2021/07/26 02:05:16;;;;;;;2.55;0.80;;;;;;;14.98;92.19;98800.72;2001840;81;20203;-81
2021/07/26 02:08:19;;;;;;;4.60;1.24;;;;;;;14.94;92.05;98801.72;2004772;81;20176;-80
2021/07/26 02:11:22;;;;;;;4.39;1.08;;;;;;;14.93;92.21;98798.25;2002101;81;20175;-80
2021/07/26 02:14:24;;;;;;;3.45;0.66;;;;;;;14.91;92.36;98797.47;2005612;81;20199;-81
2021/07/26 02:17:28;;;;;;;5.25;0.99;;;;;;;14.92;92.49;98803.53;2006302;77;20203;-81
2021/07/26 02:20:31;;;;;;;1.64;0.85;;;;;;;14.88;92.60;98801.91;2004979;81;20179;-81
2021/07/26 02:23:33;;;;;;;6.72;1.14;;;;;;;14.87;92.57;98808.03;2003734;81;20175;-80
2021/07/26 02:26:36;;;;;;;1.54;0.55;;;;;;;14.87;92.62;98808.03;2004994;81;20211;-81
2021/07/26 02:29:38;;;;;;;6.97;0.80;;;;;;;14.84;92.85;98805.53;2002765;81;20180;-81
2021/07/26 02:32:41;;;;;;;1.75;0.57;;;;;;;14.85;92.81;98805.47;2006114;80;20233;-80
2021/07/26 02:35:44;;;;;;;6.96;0.60;;;;;;;14.84;92.79;98808.13;2004672;81;20275;-81
2021/07/26 02:38:46;;;;;;;3.17;0.60;;;;;;;14.78;92.64;98804.81;2004365;81;20199;-82
2021/07/26 02:41:49;;;;;;;1.38;0.71;;;;;;;14.78;92.67;98803.97;2003338;81;20175;-81
2021/07/26 02:44:51;;;;;;;2.22;0.66;;;;;;;14.78;92.66;98803.97;2004998;81;20204;-82
2021/07/26 02:47:54;;;;;;;0.95;0.60;;;;;;;14.76;92.59;98811.84;2004572;77;28630;-81
2021/07/26 02:50:56;;;;;;;2.29;0.50;;;;;;;14.76;92.67;98801.41;2007703;80;20190;-81
2021/07/26 02:53:59;;;;;;;3.13;0.73;;;;;;;14.76;92.56;98811.00;2007484;81;20287;-82
2021/07/26 02:57:02;;;;;;;2.78;1.50;;;;;;;14.74;92.42;98807.56;2005130;81;20296;-81
2021/07/26 03:00:06;;;;;;;5.05;0.88;;;;;;;14.73;92.35;98804.09;2005697;81;20187;-81
2021/07/26 03:03:09;;;;;;;2.67;1.04;;;;;;;14.73;92.38;98809.34;2003586;81;20211;-81
2021/07/26 03:06:19;;;;;;;2.10;0.90;;;;;;;14.69;92.14;98807.69;2004321;81;20240;-81
2021/07/26 03:09:21;;;;;;;1.13;0.68;;;;;;;14.68;92.00;98810.34;2003687;81;20179;-81
2021/07/26 03:12:24;;;;;;;3.08;0.80;;;;;;;14.62;92.16;98819.25;2005214;81;20201;-81
2021/07/26 03:15:28;;;;;;;5.86;1.09;;;;;;;14.58;92.60;98809.78;2004645;81;20206;-81
2021/07/26 03:18:30;;;;;;;1.90;0.85;;;;;;;14.56;92.68;98808.13;2004077;81;20190;-81
2021/07/26 03:21:33;;;;;;;6.38;0.96;;;;;;;14.56;92.59;98821.19;2004281;81;20199;-80
2021/07/26 03:24:35;;;;;;;4.00;0.85;;;;;;;14.54;92.57;98825.59;2002707;81;20204;-81
2021/07/26 03:27:38;;;;;;;4.32;1.14;;;;;;;14.50;92.46;98817.00;2002475;81;20268;-81
2021/07/26 03:30:40;;;;;;;4.04;1.19;;;;;;;14.50;92.64;98830.91;2000674;81;20253;-81
2021/07/26 03:33:44;;;;;;;3.66;1.05;;;;;;;14.51;92.67;98829.16;2005598;81;20310;-81
2021/07/26 03:36:47;;;;;;;7.56;1.34;;;;;;;14.49;92.71;98825.72;2003511;81;20191;-81
2021/07/26 03:39:50;;;;;;;9.31;1.36;;;;;;;14.49;92.77;98823.97;2003682;80;20182;-81
2021/07/26 03:42:52;;;;;;;7.07;1.20;;;;;;;14.48;92.76;98824.03;2003264;81;20193;-81
2021/07/26 03:45:56;;;;;;;1.67;0.98;;;;;;;14.49;92.77;98829.19;2001951;81;20258;-81
2021/07/26 03:48:58;;;;;;;1.75;1.00;;;;;;;14.48;92.77;98829.25;2001753;81;20163;-82
2021/07/26 03:52:01;;;;;;;3.53;1.46;;;;;;;14.48;92.72;98832.72;2002070;81;20183;-80
2021/07/26 03:55:04;;;;;;;2.46;1.20;;;;;;;14.46;92.60;98833.66;2001019;81;20269;-82
2021/07/26 03:58:06;;;;;;;5.00;1.27;;;;;;;14.45;92.42;98842.41;2001451;81;20321;-81
2021/07/26 04:01:09;;;;;;;7.40;1.34;;;;;;;14.42;92.38;98835.47;2003632;81;20167;-82
2021/07/26 04:04:12;;;;;;;7.05;1.23;;;;;;;14.42;92.57;98832.00;2005899;81;20167;-81
2021/07/26 04:07:21;;;;;;;3.79;1.02;;;;;;;14.37;92.93;98831.28;2003981;81;20248;-80
2021/07/26 04:10:24;;;;;;;8.36;1.40;;;;;;;14.38;93.07;98836.47;2001692;81;20512;-80
2021/07/26 04:13:26;;;;;;;5.44;0.94;;;;;;;14.41;93.08;98836.38;2003172;81;20200;-81
2021/07/26 04:16:29;;;;;;;1.71;0.90;;;;;;;14.43;93.09;98842.44;2003998;81;20179;-81
2021/07/26 04:19:32;;;;;;;1.71;1.09;;;;;;;14.46;93.07;98844.09;2002915;81;20175;-81
2021/07/26 04:22:35;;;;;;;3.83;1.00;;;;;;;14.49;93.22;98849.25;2001855;81;20284;-80
2021/07/26 04:25:38;;;;;;;3.35;1.24;;;;;;;14.51;93.02;98835.22;2000659;81;20171;-81
2021/07/26 04:28:40;;;;;;;2.28;0.99;;;;;;;14.55;93.26;98835.16;2002555;81;20214;-81
2021/07/26 04:31:43;;;;;;;3.29;1.40;;;;;;;14.62;93.46;98834.06;2005068;81;20179;-81
2021/07/26 04:34:46;;;;;;;4.74;1.10;;;;;;;14.68;93.54;98831.25;1992416;81;21604;-78
2021/07/26 04:37:48;;;;;;;3.61;0.86;;;;;;;14.71;93.82;98832.03;1991124;81;20207;-78
2021/07/26 04:40:51;;;;;;;5.60;0.86;;;;;;;14.76;93.66;98831.91;1992530;81;20182;-78
2021/07/26 04:43:53;;;;;;;5.50;1.10;;;;;;;14.78;93.56;98833.56;1991516;81;20175;-78
2021/07/26 04:46:56;;;;;;;2.25;1.45;;;;;;;14.81;93.32;98832.63;1990257;77;23680;-78
2021/07/26 04:49:59;;;;;;;1.36;0.80;;;;;;;14.87;93.51;98840.25;1991938;81;20188;-79
2021/07/26 04:53:02;;;;;;;6.45;1.67;;;;;;;14.97;93.60;98839.09;1991059;80;20561;-78
2021/07/26 04:56:04;;;;;;;5.64;1.06;;;;;;;15.02;93.65;98845.00;1991593;80;20216;-78
2021/07/26 04:59:07;;;;;;;3.11;1.16;;;;;;;15.12;93.55;98845.59;1991444;81;20281;-78
2021/07/26 05:02:11;;;;;;;3.35;1.14;;;;;;;15.20;93.35;98842.72;1990411;77;20762;-78
2021/07/26 05:05:14;;;;;;;4.93;0.98;;;;;;;15.35;93.28;98847.47;1992394;80;20698;-78
2021/07/26 05:08:17;;;;;;;1.23;0.80;;;;;;;15.45;92.87;98845.44;1991881;81;21235;-78
2021/07/26 05:11:22;;;;;;;0.90;0.70;;;;;;;15.53;92.51;98833.78;1991528;81;20219;-79
2021/07/26 05:14:25;;;;;;;3.78;0.80;;;;;;;15.55;92.23;98837.19;1992516;81;20282;-78
2021/07/26 05:17:27;;;;;;;0.79;0.70;;;;;;;15.70;92.19;98839.34;1991698;78;23156;-78
2021/07/26 05:20:32;;;;;;;2.63;0.70;;;;;;;15.76;91.91;98845.25;1994024;81;20240;-79
2021/07/26 05:23:34;;;;;;;2.09;0.80;;;;;;;16.11;91.48;98847.50;1994866;81;20198;-79
2021/07/26 05:26:37;;;;;;;3.49;0.69;;;;;;;16.57;90.07;98841.47;1995113;81;20249;-79
2021/07/26 05:29:40;;;;;;;3.81;0.90;;;;;;;16.96;88.61;98853.13;1997773;81;20163;-80
2021/07/26 05:32:42;;;;;;;0.89;0.65;;;;;;;17.34;87.07;98849.84;2003592;77;20438;-81
2021/07/26 05:35:45;;;;;;;1.96;0.76;;;;;;;17.66;85.67;98855.56;2003535;81;20197;-84
2021/07/26 06:44:39;;;;;;;3.54;1.58;;;;;;;22.54;66.48;98875.28;2186487;69;20145;-86
2021/07/26 06:55:43;;;;;;;4.14;1.40;;;;;;;22.68;66.84;98887.66;2039048;69;20151;-84
2021/07/26 07:02:34;;;;;;;2.49;1.51;;;;;;;22.87;66.47;98909.41;2083874;69;20144;-87
2021/07/26 07:08:57;;;;;;;1.65;1.29;;;;;;;21.83;68.58;98914.75;2279391;69;20248;-84
2021/07/26 07:11:59;;;;;;;2.51;1.74;;;;;;;21.73;69.82;98913.63;2036249;80;20248;-84
2021/07/26 07:15:03;;;;;;;6.32;1.74;;;;;;;21.69;70.38;98919.03;2029029;80;20168;-84
2021/07/26 07:18:06;;;;;;;3.56;1.41;;;;;;;21.99;69.83;98913.78;2031126;80;20160;-83
2021/07/26 07:21:17;;;;;;;6.14;1.51;;;;;;;22.44;69.69;98911.16;2031923;80;20191;-83
2021/07/26 07:24:28;;;;;;;1.49;1.30;;;;;;;22.80;68.44;98911.59;2045932;69;20183;-82
2021/07/26 07:27:31;;;;;;;4.18;1.55;;;;;;;23.01;67.61;98901.47;2036117;80;20217;-85
2021/07/26 07:30:53;;;;;;;4.38;1.58;;;;;;;23.03;66.98;98904.03;2149274;69;47160;-83
2021/07/26 07:33:57;;;;;;;1.75;1.34;;;;;;;23.19;67.37;98910.06;2026952;80;20200;-80
2021/07/26 07:37:01;;;;;;;4.35;1.77;;;;;;;22.97;67.62;98910.53;2023295;80;20209;-80
2021/07/26 07:40:04;;;;;;;2.71;1.41;;;;;;;22.75;66.80;98921.56;2024376;80;20188;-80
2021/07/26 07:43:06;;;;;;;1.96;1.75;;;;;;;22.56;67.98;98919.22;2024692;80;20275;-76
2021/07/26 07:46:10;;;;;;;6.72;1.75;;;;;;;22.48;68.55;98920.63;2023164;78;25293;-81
2021/07/26 07:49:13;;;;;;;2.29;1.75;;;;;;;22.32;68.99;98920.69;2016288;80;20168;-79
2021/07/26 07:52:16;;;;;;;2.72;1.44;;;;;;;22.25;69.41;98928.13;2012895;80;20251;-79
2021/07/26 07:55:18;;;;;;;3.33;1.61;;;;;;;22.34;69.34;98926.75;2014323;80;20204;-81
2021/07/26 07:58:21;;;;;;;4.30;1.80;;;;;;;22.54;68.81;98928.19;2019631;80;20525;-79
2021/07/26 08:04:41;;;;;;;2.35;1.60;;;;;;;22.79;67.64;98933.66;2076112;69;20251;-81
2021/07/26 08:07:56;;;;;;;2.82;1.90;;;;;;;22.78;67.58;98937.28;2025641;80;20201;-80
2021/07/26 08:10:58;;;;;;;2.44;1.81;;;;;;;22.74;66.93;98935.75;2028837;80;20215;-81
2021/07/26 08:14:01;;;;;;;3.45;1.75;;;;;;;22.82;65.75;98938.84;2027087;80;20207;-80
2021/07/26 08:17:04;;;;;;;2.79;1.80;;;;;;;23.15;67.50;98930.56;2029909;77;59166;-81
2021/07/26 08:20:11;;;;;;;3.36;1.91;;;;;;;23.32;67.75;98936.59;2034407;80;20196;-80
2021/07/26 08:23:16;;;;;;;3.17;1.81;;;;;;;23.53;65.46;98940.53;2028214;80;20174;-80
2021/07/26 08:26:18;;;;;;;2.53;1.45;;;;;;;23.87;64.96;98938.34;2028634;80;20241;-77
2021/07/26 08:29:21;;;;;;;1.98;1.54;;;;;;;23.76;63.60;98945.22;2022604;80;20179;-81
2021/07/26 08:32:23;;;;;;;3.17;1.46;;;;;;;23.55;64.35;98949.25;2031941;77;21121;-83
2021/07/26 08:35:26;;;;;;;2.29;1.75;;;;;;;23.37;65.24;98951.25;2032313;80;20171;-79
2021/07/26 08:38:29;;;;;;;2.85;1.55;;;;;;;23.59;66.10;98947.25;2028691;80;20703;-79
2021/07/26 08:41:31;;;;;;;2.97;1.69;;;;;;;23.83;64.50;98950.97;2026326;80;20213;-78
2021/07/26 08:44:34;;;;;;;3.22;1.76;;;;;;;23.85;64.33;98950.84;2022934;80;20471;-78
2021/07/26 08:47:42;;;;;;;4.82;1.49;;;;;;;23.81;63.58;98951.06;2018958;77;23014;-81
2021/07/26 08:50:49;;;;;;;2.05;1.70;;;;;;;23.73;63.89;98953.38;2023759;80;20241;-78
2021/07/26 08:53:51;;;;;;;4.88;1.60;;;;;;;23.65;64.41;98963.63;2021088;80;20171;-78
2021/07/26 08:56:54;;;;;;;5.80;1.73;;;;;;;23.73;64.98;98955.19;2017727;80;20273;-78
2021/07/26 08:59:57;;;;;;;4.25;1.74;;;;;;;23.78;65.87;98959.22;2017990;80;20168;-76
2021/07/26 09:03:19;;;;;;;2.29;1.50;;;;;;;23.67;64.36;98959.06;2012595;80;20299;-77
2021/07/26 09:06:23;;;;;;;2.21;1.85;;;;;;;23.59;63.09;98961.38;2011987;80;20274;-77
2021/07/26 09:09:45;;;;;;;2.19;1.49;;;;;;;23.85;64.01;98958.81;2012003;80;20188;-77
2021/07/26 09:12:49;;;;;;;2.94;1.65;;;;;;;24.08;62.95;98953.72;2012563;80;20197;-77
2021/07/26 09:15:52;;;;;;;1.60;1.39;;;;;;;24.09;61.79;98952.75;2014685;78;20806;-77
2021/07/26 09:19:07;;;;;;;3.55;1.35;;;;;;;23.84;59.76;98959.75;2022136;80;20208;-77
2021/07/26 09:22:09;;;;;;;2.47;1.55;;;;;;;23.69;61.07;98958.97;2022492;80;20187;-77
2021/07/26 09:25:25;;;;;;;1.89;1.49;;;;;;;23.59;61.82;98952.56;2022764;80;20205;-77
2021/07/26 09:28:32;;;;;;;1.66;1.25;;;;;;;23.45;62.78;98950.75;2022363;80;20644;-77
2021/07/26 09:31:54;;;;;;;2.72;1.25;;;;;;;23.27;63.11;98959.88;2018548;77;20721;-77
2021/07/26 09:34:57;;;;;;;2.66;1.23;;;;;;;22.98;63.95;98954.63;2017141;80;20762;-78
2021/07/26 09:38:02;;;;;;;5.20;1.39;;;;;;;22.85;65.48;98958.97;2016498;80;20587;-77
2021/07/26 09:41:05;;;;;;;4.80;1.40;;;;;;;22.83;66.66;98969.66;2017253;80;20342;-77
2021/07/26 09:44:08;;;;;;;2.34;1.46;;;;;;;22.95;66.19;98967.19;2017484;80;20241;-77
2021/07/26 09:47:19;;;;;;;2.47;1.50;;;;;;;23.02;64.07;98960.59;2019427;78;26313;-77
2021/07/26 09:50:42;;;;;;;1.81;1.38;;;;;;;23.05;63.62;98965.69;2022813;80;20203;-78
2021/07/26 09:53:49;;;;;;;2.13;1.20;;;;;;;23.19;62.13;98976.28;2022359;80;20652;-78
2021/07/26 09:56:51;;;;;;;1.31;1.04;;;;;;;23.38;62.85;98974.16;2022668;80;20286;-78
2021/07/26 09:59:55;;;;;;;1.67;1.30;;;;;;;23.87;61.97;98970.16;2022883;80;20237;-78
2021/07/26 10:02:58;;;;;;;1.85;1.23;;;;;;;24.37;61.21;98969.47;2017354;77;21622;-79
2021/07/26 10:06:01;;;;;;;1.48;1.08;;;;;;;24.55;58.56;98965.56;2019140;80;20769;-78
2021/07/26 10:09:04;;;;;;;1.20;1.10;;;;;;;24.70;57.25;98961.88;2018567;80;20172;-79
2021/07/26 10:12:09;;;;;;;3.01;1.15;;;;;;;25.11;56.51;98962.63;2019005;80;20226;-78
2021/07/26 10:15:12;;;;;;;1.31;1.20;;;;;;;25.42;56.50;98959.47;2017307;80;20219;-79
2021/07/26 10:18:15;;;;;;;2.51;1.24;;;;;;;25.54;54.63;98961.25;2017924;77;20508;-78
2021/07/26 10:21:26;;;;;;;1.44;1.06;;;;;;;25.49;54.29;98958.06;2017701;80;20991;-78
2021/07/26 10:24:43;;;;;;;2.59;1.04;;;;;;;25.20;54.57;98960.16;2017688;80;20195;-78
2021/07/26 10:27:49;;;;;;;2.92;1.06;;;;;;;25.08;56.25;98960.19;2018032;80;21005;-77
2021/07/26 10:30:52;;;;;;;1.26;0.90;;;;;;;25.00;56.19;98956.28;2019309;77;21467;-78
2021/07/26 10:34:02;;;;;;;1.31;1.17;;;;;;;24.81;56.70;98949.66;2023278;80;20240;-77
2021/07/26 10:37:05;;;;;;;1.63;0.90;;;;;;;25.06;57.18;98960.28;2023443;80;20155;-77
2021/07/26 10:40:17;;;;;;;2.66;1.02;;;;;;;25.11;53.44;98952.00;2026854;80;20170;-77
2021/07/26 10:43:55;;;;;;;1.51;1.10;;;;;;;25.28;53.77;98948.97;2023986;80;20309;-77
2021/07/26 10:47:03;;;;;;;3.35;1.02;;;;;;;25.65;53.98;98948.97;2019293;77;24089;-77
2021/07/26 10:50:13;;;;;;;1.51;1.03;;;;;;;25.85;53.03;98945.72;2018095;80;20241;-77
2021/07/26 10:53:34;;;;;;;1.86;1.04;;;;;;;25.93;52.21;98946.00;2017246;80;20667;-77
2021/07/26 10:57:02;;;;;;;1.54;1.19;;;;;;;25.94;52.65;98944.19;2017835;80;20635;-77
2021/07/26 11:00:07;;;;;;;1.17;0.84;;;;;;;25.80;52.32;98943.41;2017542;80;20731;-77
2021/07/26 11:03:42;;;;;;;1.25;0.77;;;;;;;25.93;51.89;98946.00;2022439;78;20494;-77
2021/07/26 11:06:45;;;;;;;2.16;0.94;;;;;;;26.04;50.55;98940.75;2019913;80;20185;-78
2021/07/26 11:09:47;;;;;;;3.05;1.10;;;;;;;26.06;49.69;98943.28;2022977;80;20171;-77
2021/07/26 11:12:52;;;;;;;1.92;1.21;;;;;;;26.27;50.92;98952.31;2023045;80;20758;-77
2021/07/26 11:15:55;;;;;;;0.93;0.90;;;;;;;26.42;49.94;98937.88;2021810;77;21802;-77
2021/07/26 11:19:36;;;;;;;3.79;1.20;;;;;;;26.70;48.90;98925.06;2022378;80;20192;-78
2021/07/26 11:22:58;;;;;;;0.76;0.76;;;;;;;26.93;49.80;98937.44;2023533;80;20167;-77
2021/07/26 11:26:02;;;;;;;1.35;0.88;;;;;;;26.97;48.39;98930.91;2023208;80;20183;-76
2021/07/26 11:29:09;;;;;;;2.26;0.94;;;;;;;26.58;47.49;98928.69;2022990;80;20729;-76
2021/07/26 11:32:23;;;;;;;1.25;0.90;;;;;;;26.23;48.67;98923.38;2018259;80;21924;-79
2021/07/26 11:35:30;;;;;;;2.35;0.90;;;;;;;26.37;51.02;98920.53;2017827;80;20200;-77
2021/07/26 11:39:00;;;;;;;2.04;1.00;;;;;;;26.69;49.57;98918.03;2017714;80;20728;-75
2021/07/26 11:42:03;;;;;;;1.25;1.01;;;;;;;26.86;47.37;98924.72;2018261;80;20164;-82
2021/07/26 11:45:07;;;;;;;0.81;0.80;;;;;;;26.94;47.63;98923.16;2017641;80;20303;-80
2021/07/26 11:48:09;;;;;;;2.04;1.00;;;;;;;27.22;47.81;98913.81;2017282;77;23119;-82
2021/07/26 11:51:29;;;;;;;1.77;0.90;;;;;;;27.30;47.78;98923.88;2018174;80;20231;-80
2021/07/26 11:54:32;;;;;;;0.84;0.80;;;;;;;26.74;46.38;98923.84;2018371;80;20687;-81
2021/07/26 11:57:35;;;;;;;1.29;1.00;;;;;;;26.42;49.20;98929.88;2018172;80;20193;-79
2021/07/26 12:00:42;;;;;;;6.63;1.25;;;;;;;26.08;50.11;98930.72;2018830;78;20319;-79
2021/07/26 12:03:45;;;;;;;1.49;0.93;;;;;;;26.17;50.94;98922.88;2025944;80;20236;-81
2021/07/26 12:06:50;;;;;;;1.76;1.08;;;;;;;26.49;49.35;98922.25;2023986;80;20308;-81
2021/07/26 12:09:53;;;;;;;4.66;1.16;;;;;;;26.91;48.13;98925.19;2023474;80;20744;-81
2021/07/26 12:13:05;;;;;;;1.80;0.90;;;;;;;27.15;46.98;98920.63;2022375;80;20179;-81
2021/07/26 12:16:09;;;;;;;1.86;0.93;;;;;;;27.19;46.33;98927.41;2020834;77;20819;-82
2021/07/26 12:19:13;;;;;;;0.80;0.80;;;;;;;26.54;46.51;98924.56;2024521;80;20176;-80
2021/07/26 12:22:17;;;;;;;0.98;0.79;;;;;;;26.09;48.91;98924.44;2021809;80;20221;-80
2021/07/26 12:25:41;;;;;;;1.88;1.00;;;;;;;26.15;49.87;98910.66;2023308;80;20191;-80
2021/07/26 12:28:53;;;;;;;1.42;1.11;;;;;;;26.46;48.11;98917.16;2022880;80;20193;-80
2021/07/26 12:32:05;;;;;;;2.29;0.96;;;;;;;26.36;47.55;98914.34;2027045;77;20630;-81
2021/07/26 12:35:14;;;;;;;1.98;0.90;;;;;;;26.45;46.72;98902.16;2027571;80;20183;-81
2021/07/26 12:38:18;;;;;;;1.02;0.88;;;;;;;26.84;47.28;98903.50;2022421;80;20196;-81
2021/07/26 12:41:29;;;;;;;1.00;0.90;;;;;;;26.72;45.57;98894.66;2025260;80;20202;-84
2021/07/26 12:47:54;;;;;;;1.25;0.84;;;;;;;25.92;48.14;98903.56;2034310;69;39539;-81
2021/07/26 12:50:58;;;;;;;3.91;1.74;;;;;;;26.00;49.75;98896.69;2029405;80;20229;-81
2021/07/26 12:54:03;;;;;;;1.23;1.04;;;;;;;26.49;50.94;98898.28;2033661;80;20175;-81
2021/07/26 12:57:05;;;;;;;2.21;1.00;;;;;;;26.87;48.57;98897.09;2027844;80;20262;-82
2021/07/26 13:00:09;;;;;;;2.22;0.90;;;;;;;27.32;48.67;98889.94;2018785;80;20179;-83
2021/07/26 13:03:15;;;;;;;4.24;1.08;;;;;;;27.33;46.77;98889.81;2032480;69;20260;-84
2021/07/26 13:06:17;;;;;;;1.42;1.06;;;;;;;27.47;45.28;98890.47;2023720;80;20183;-83
2021/07/26 13:09:20;;;;;;;1.59;0.81;;;;;;;27.60;44.34;98885.84;2019513;80;20176;-83
2021/07/26 13:12:23;;;;;;;3.21;0.96;;;;;;;27.46;44.81;98886.97;2020088;80;20183;-83
2021/07/26 13:15:30;;;;;;;1.13;1.02;;;;;;;27.27;44.34;98871.63;2018855;77;22552;-82
2021/07/26 13:18:32;;;;;;;2.44;1.04;;;;;;;27.45;44.79;98868.44;2015591;80;20183;-85
2021/07/26 13:21:35;;;;;;;1.80;1.00;;;;;;;27.57;45.84;98868.28;2018688;80;20244;-76
2021/07/26 13:24:38;;;;;;;1.41;0.90;;;;;;;27.65;44.69;98857.03;2017358;80;20664;-76
2021/07/26 13:27:41;;;;;;;7.00;0.94;;;;;;;27.77;44.22;98865.81;2017072;80;20164;-76
2021/07/26 13:30:43;;;;;;;2.09;0.88;;;;;;;27.87;44.20;98862.25;2017663;78;22027;-77
2021/07/26 13:33:49;;;;;;;1.67;0.94;;;;;;;28.05;44.30;98861.66;2022915;80;20211;-76
2021/07/26 13:36:52;;;;;;;0.98;0.91;;;;;;;27.94;42.29;98860.75;2023001;80;20167;-76
2021/07/26 13:39:54;;;;;;;1.01;1.00;;;;;;;27.57;42.14;98860.28;2018651;80;20730;-76
2021/07/26 13:42:57;;;;;;;2.56;1.25;;;;;;;26.88;41.44;98857.00;2022954;80;20191;-76
2021/07/26 13:46:00;;;;;;;1.50;0.89;;;;;;;26.65;44.98;98858.00;2020645;77;20159;-77
2021/07/26 13:49:03;;;;;;;1.00;0.90;;;;;;;26.96;46.21;98854.59;2017619;80;20237;-75
2021/07/26 13:52:06;;;;;;;5.51;1.69;;;;;;;27.14;45.62;98852.28;2017754;80;20196;-75
2021/07/26 13:55:09;;;;;;;1.38;1.10;;;;;;;27.13;42.82;98855.09;2018013;80;20233;-75
2021/07/26 13:58:12;;;;;;;1.01;0.91;;;;;;;27.00;44.46;98865.88;2017423;80;20197;-77
2021/07/26 14:01:14;;;;;;;2.34;1.06;;;;;;;26.90;42.57;98859.53;2018640;78;21491;-77
2021/07/26 14:04:17;;;;;;;1.20;1.10;;;;;;;26.93;44.55;98856.63;2022856;80;21063;-77
2021/07/26 14:07:20;;;;;;;2.89;0.85;;;;;;;27.20;43.42;98859.78;2022595;80;20204;-77
2021/07/26 14:10:23;;;;;;;1.23;1.10;;;;;;;27.18;44.37;98861.72;2022911;80;20171;-78
2021/07/26 14:13:29;;;;;;;2.29;1.02;;;;;;;26.91;44.12;98862.09;2022354;80;20246;-76
2021/07/26 14:16:32;;;;;;;1.42;1.33;;;;;;;26.47;43.25;98869.13;2018973;77;83486;-77
2021/07/26 14:19:35;;;;;;;1.52;0.93;;;;;;;26.30;45.45;98864.22;2021086;80;20193;-77
2021/07/26 14:22:38;;;;;;;1.08;0.86;;;;;;;26.20;46.01;98863.22;2017965;80;20680;-76
2021/07/26 14:25:41;;;;;;;2.14;1.00;;;;;;;26.32;47.94;98874.75;2018222;80;20172;-76
2021/07/26 14:28:43;;;;;;;1.58;0.96;;;;;;;26.38;46.74;98867.16;2018392;80;20175;-76
2021/07/26 14:31:48;;;;;;;5.68;1.34;;;;;;;26.50;46.59;98876.03;2021054;77;21198;-69
2021/07/26 14:34:50;;;;;;;2.36;1.40;;;;;;;26.15;45.84;98876.88;2022755;80;20236;-69
2021/07/26 14:37:53;;;;;;;1.63;1.19;;;;;;;25.97;48.36;98883.63;2022771;80;20183;-69
2021/07/26 14:40:56;;;;;;;1.21;1.10;;;;;;;25.68;46.82;98874.34;2022947;80;20175;-69
2021/07/26 14:43:58;;;;;;;1.86;1.10;;;;;;;25.64;48.17;98868.34;2023672;80;20175;-69
2021/07/26 14:47:01;;;;;;;1.34;1.00;;;;;;;25.64;47.36;98871.00;2018556;80;20251;-69
2021/07/26 14:50:05;;;;;;;2.86;1.14;;;;;;;25.49;46.39;98882.75;2017428;80;20156;-71
2021/07/26 14:53:08;;;;;;;2.06;1.00;;;;;;;25.33;48.00;98874.25;2017648;80;20183;-71
2021/07/26 14:56:11;;;;;;;5.25;1.00;;;;;;;25.33;49.83;98868.94;2017251;80;20240;-70
2021/07/26 14:59:13;;;;;;;2.75;1.13;;;;;;;25.09;47.47;98868.88;2017497;80;20191;-69
2021/07/26 15:02:16;;;;;;;6.81;1.10;;;;;;;24.89;48.58;98875.59;2016223;77;20992;-69
2021/07/26 15:05:19;;;;;;;4.82;1.00;;;;;;;24.59;48.22;98873.28;2017796;80;20558;-71
2021/07/26 15:08:21;;;;;;;1.11;1.09;;;;;;;24.74;51.92;98879.34;2017879;80;20237;-70
2021/07/26 15:11:24;;;;;;;1.25;1.00;;;;;;;25.37;49.44;98879.22;2017117;80;20918;-71
2021/07/26 15:14:27;;;;;;;1.99;0.99;;;;;;;26.10;47.86;98870.25;2018108;80;20237;-71
2021/07/26 15:17:30;;;;;;;3.56;1.00;;;;;;;26.48;45.89;98867.31;2022195;77;20183;-71
2021/07/26 15:20:33;;;;;;;1.33;1.10;;;;;;;26.86;48.07;98866.09;2023085;80;20183;-70
2021/07/26 15:23:36;;;;;;;1.41;1.23;;;;;;;26.67;43.18;98867.56;2022824;80;20211;-70
2021/07/26 15:26:38;;;;;;;1.00;1.00;;;;;;;25.96;43.25;98867.78;2022914;80;20696;-70
2021/07/26 15:29:41;;;;;;;4.22;1.31;;;;;;;25.65;45.79;98867.38;2022764;80;20232;-70
2021/07/26 15:32:44;;;;;;;1.20;1.10;;;;;;;25.13;46.40;98868.53;2017365;80;21529;-70
2021/07/26 15:35:46;;;;;;;1.26;1.00;;;;;;;24.92;48.80;98864.75;2017116;80;20176;-71
2021/07/26 15:38:49;;;;;;;1.95;0.85;;;;;;;24.93;50.47;98866.44;2017173;80;20172;-70
2021/07/26 15:41:52;;;;;;;1.33;1.20;;;;;;;25.08;49.50;98859.22;2016770;80;20189;-70
2021/07/26 15:44:54;;;;;;;2.65;1.15;;;;;;;24.89;49.84;98863.16;2017543;80;20171;-70
2021/07/26 15:47:57;;;;;;;2.84;1.08;;;;;;;25.06;51.59;98866.44;2016262;78;21476;-70
2021/07/26 15:51:00;;;;;;;1.46;1.14;;;;;;;24.88;49.97;98863.28;2017093;80;20171;-70
2021/07/26 15:54:04;;;;;;;1.34;1.24;;;;;;;24.63;50.84;98869.50;2017790;80;20187;-74
2021/07/26 15:57:07;;;;;;;3.69;1.54;;;;;;;24.34;51.24;98869.69;2016909;80;20651;-72
2021/07/26 16:00:11;;;;;;;1.41;1.08;;;;;;;24.04;52.04;98861.16;2016270;80;21261;-73
2021/07/26 16:03:13;;;;;;;4.13;1.10;;;;;;;23.65;53.29;98870.81;2016911;77;20979;-73
2021/07/26 16:06:16;;;;;;;2.06;1.19;;;;;;;23.41;55.00;98870.63;2016123;80;20277;-73